createdAt,value
2023-05-05T00:02:59.770Z,16.43
2023-05-05T00:06:17.102Z,13.98
2023-05-05T00:09:33.507Z,15.98
2023-05-05T00:12:50.209Z,15.65
2023-05-05T00:16:06.860Z,14.03
2023-05-05T00:19:23.429Z,17.03
2023-05-05T00:22:40.162Z,17.20
2023-05-05T00:25:56.888Z,15.78
2023-05-05T00:29:13.786Z,20.15
2023-05-05T00:32:30.618Z,15.93
2023-05-05T00:35:47.718Z,15.73
2023-05-05T00:39:04.181Z,16.40
2023-05-05T00:45:52.924Z,15.63
2023-05-05T00:49:10.937Z,14.40
2023-05-05T00:52:27.930Z,17.98
2023-05-05T00:55:47.516Z,15.43
2023-05-05T01:02:20.001Z,14.83
2023-05-05T01:05:43.047Z,17.13
2023-05-05T01:09:09.881Z,16.30
2023-05-05T01:12:31.013Z,18.45
2023-05-05T01:15:52.532Z,15.85
2023-05-05T01:19:21.399Z,15.33
2023-05-05T01:22:46.509Z,16.88
2023-05-05T01:26:48.022Z,15.88
2023-05-05T01:30:19.775Z,15.30
2023-05-05T01:33:44.862Z,19.63
2023-05-05T01:37:10.105Z,14.98
2023-05-05T01:40:32.085Z,15.68
2023-05-05T01:47:07.671Z,16.15
2023-05-05T01:50:26.416Z,15.53
2023-05-05T01:53:44.486Z,17.30
2023-05-05T01:57:04.243Z,18.33
2023-05-05T02:00:23.611Z,17.38
2023-05-05T02:06:58.386Z,16.83
2023-05-05T02:10:18.769Z,17.10
2023-05-05T02:13:38.379Z,17.73
2023-05-05T02:16:55.588Z,16.85
2023-05-05T02:20:15.942Z,17.05
2023-05-05T02:23:33.243Z,16.45
2023-05-05T02:26:53.819Z,16.50
2023-05-05T02:30:15.000Z,13.43
2023-05-05T02:33:35.357Z,18.63
2023-05-05T02:36:55.235Z,15.48
2023-05-05T02:40:16.295Z,14.58
2023-05-05T02:46:50.517Z,18.88
2023-05-05T02:50:07.665Z,16.50
2023-05-05T02:53:27.732Z,16.80
2023-05-05T03:02:09.713Z,19.25
2023-05-05T03:05:31.532Z,20.93
2023-05-05T03:08:53.692Z,18.70
2023-05-05T03:15:27.281Z,17.80
2023-05-05T03:18:46.011Z,18.60
2023-05-05T03:22:02.714Z,21.05
2023-05-05T03:25:20.471Z,18.85
2023-05-05T03:28:37.606Z,18.85
2023-05-05T03:31:55.900Z,17.53
2023-05-05T03:35:15.430Z,18.45
2023-05-05T03:38:33.390Z,19.08
2023-05-05T03:41:52.012Z,21.65
2023-05-05T03:45:09.733Z,20.38
2023-05-05T03:48:27.567Z,16.48
2023-05-05T03:51:44.172Z,17.30
2023-05-05T03:55:01.772Z,16.40
2023-05-05T03:58:18.561Z,18.20
2023-05-05T04:01:36.224Z,16.90
2023-05-05T04:04:54.264Z,16.03
2023-05-05T04:08:11.792Z,17.15
2023-05-05T04:11:29.786Z,19.05
2023-05-05T04:14:47.078Z,18.23
2023-05-05T04:18:04.670Z,20.25
2023-05-05T04:21:21.347Z,18.75
2023-05-05T04:24:38.186Z,20.63
2023-05-05T04:27:54.822Z,18.35
2023-05-05T04:31:12.633Z,18.05
2023-05-05T04:34:30.342Z,22.33
2023-05-05T04:37:47.285Z,18.63
2023-05-05T04:41:09.521Z,16.08
2023-05-05T04:44:26.911Z,19.98
2023-05-05T04:47:49.145Z,19.10
2023-05-05T04:51:06.417Z,19.53
2023-05-05T04:54:23.673Z,19.53
2023-05-05T04:57:41.204Z,21.23
2023-05-05T05:00:57.862Z,19.63
2023-05-05T05:04:14.825Z,18.75
2023-05-05T05:07:33.551Z,17.60
2023-05-05T05:10:51.373Z,16.95
2023-05-05T05:14:07.768Z,21.13
2023-05-05T05:17:25.845Z,21.55
2023-05-05T05:20:42.416Z,17.98
2023-05-05T05:24:00.178Z,22.60
2023-05-05T05:27:18.350Z,16.30
2023-05-05T05:30:35.499Z,15.65
2023-05-05T05:33:53.865Z,18.08
2023-05-05T05:37:11.993Z,19.35
2023-05-05T05:40:28.828Z,21.80
2023-05-05T05:43:49.420Z,16.95
2023-05-05T05:47:06.663Z,21.50
2023-05-05T05:50:27.093Z,21.10
2023-05-05T05:53:44.150Z,17.13
2023-05-05T05:57:03.717Z,19.25
2023-05-05T06:01:21.625Z,20.25
2023-05-05T06:04:39.211Z,16.23
2023-05-05T06:07:55.656Z,14.85
2023-05-05T06:11:13.009Z,13.05
2023-05-05T06:17:46.054Z,14.10
2023-05-05T06:21:03.149Z,14.50
2023-05-05T06:24:20.269Z,14.75
2023-05-05T06:30:53.906Z,16.53
2023-05-05T06:34:10.354Z,18.85
2023-05-05T06:37:29.158Z,18.45
2023-05-05T06:40:51.052Z,15.98
2023-05-05T06:44:07.690Z,17.75
2023-05-05T06:47:24.122Z,11.63
2023-05-05T06:53:53.388Z,13.70
2023-05-05T06:57:10.066Z,12.40
2023-05-05T07:03:41.967Z,9.60
2023-05-05T07:07:00.043Z,10.83
2023-05-05T07:10:19.432Z,9.20
2023-05-05T07:13:35.710Z,12.08
2023-05-05T07:16:54.715Z,9.25
2023-05-05T07:20:15.525Z,10.58
2023-05-05T07:23:32.047Z,8.38
2023-05-05T07:26:49.146Z,10.95
2023-05-05T07:30:10.157Z,8.08
2023-05-05T07:33:26.493Z,9.15
2023-05-05T07:39:57.113Z,11.83
2023-05-05T07:46:29.512Z,27.58
2023-05-05T07:49:48.914Z,41.93
2023-05-05T07:56:21.907Z,12.93
2023-05-05T07:59:41.943Z,11.53
2023-05-05T08:03:02.619Z,8.05
2023-05-05T08:06:26.148Z,9.15
2023-05-05T08:09:45.584Z,10.80
2023-05-05T08:13:01.988Z,7.05
2023-05-05T08:16:19.912Z,9.60
2023-05-05T08:19:36.254Z,6.90
2023-05-05T08:22:52.839Z,8.35
2023-05-05T08:26:10.162Z,7.75
2023-05-05T08:29:26.927Z,7.03
2023-05-05T08:32:43.823Z,6.18
2023-05-05T08:36:00.472Z,5.13
2023-05-05T08:39:17.537Z,4.80
2023-05-05T08:42:38.558Z,3.58
2023-05-05T08:45:57.436Z,5.83
2023-05-05T08:49:19.219Z,2.85
2023-05-05T08:52:40.987Z,4.30
2023-05-05T08:56:01.660Z,3.70
2023-05-05T08:59:19.698Z,2.48
2023-05-05T09:02:37.927Z,2.48
2023-05-05T09:05:56.617Z,2.35
2023-05-05T09:09:14.521Z,1.90
2023-05-05T09:12:32.204Z,3.15
2023-05-05T09:15:48.724Z,2.53
2023-05-05T09:19:12.859Z,2.75
2023-05-05T09:22:41.610Z,3.80
2023-05-05T09:26:13.507Z,3.63
2023-05-05T09:29:30.808Z,3.33
2023-05-05T09:32:59.085Z,6.55
2023-05-05T09:36:16.697Z,2.38
2023-05-05T09:39:36.008Z,3.38
2023-05-05T09:42:52.756Z,2.85
2023-05-05T09:46:17.635Z,2.73
2023-05-05T09:49:37.694Z,19.28
2023-05-05T09:53:04.085Z,5.38
2023-05-05T09:56:21.685Z,3.25
2023-05-05T09:59:39.941Z,4.95
2023-05-05T10:02:56.417Z,6.50
2023-05-05T10:06:13.413Z,5.35
2023-05-05T10:09:30.350Z,3.95
2023-05-05T10:12:47.859Z,25.68
2023-05-05T10:16:05.852Z,8.60
2023-05-05T10:19:24.990Z,6.48
2023-05-05T10:22:43.709Z,3.38
2023-05-05T10:26:07.012Z,3.25
2023-05-05T10:29:29.343Z,3.68
2023-05-05T10:33:07.883Z,3.08
2023-05-05T10:36:13.061Z,3.58
2023-05-05T10:39:30.522Z,5.20
2023-05-05T10:46:04.513Z,3.73
2023-05-05T10:49:27.712Z,2.63
2023-05-05T10:52:49.216Z,3.35
2023-05-05T10:56:20.245Z,3.78
2023-05-05T11:02:52.358Z,6.63
2023-05-05T11:06:24.764Z,2.60
2023-05-05T11:09:43.735Z,3.98
2023-05-05T11:16:52.793Z,4.33
2023-05-05T11:20:11.293Z,8.00
2023-05-05T11:23:35.609Z,3.85
2023-05-05T11:27:11.786Z,3.80
2023-05-05T11:30:54.637Z,4.53
2023-05-05T11:34:33.415Z,3.35
2023-05-05T11:38:11.928Z,6.70
2023-05-05T11:41:43.066Z,5.08
2023-05-05T11:45:02.853Z,4.13
2023-05-05T11:48:36.189Z,5.15
2023-05-05T11:52:02.809Z,4.98
2023-05-05T11:55:21.774Z,4.13
2023-05-05T12:01:52.409Z,3.65
2023-05-05T12:05:16.474Z,3.50
2023-05-05T12:08:54.574Z,6.55
2023-05-05T12:12:16.839Z,4.13
2023-05-05T12:18:55.470Z,4.60
2023-05-05T12:22:14.473Z,5.45
2023-05-05T12:25:30.993Z,5.03
2023-05-05T12:28:57.785Z,6.10
2023-05-05T12:32:16.450Z,3.73
2023-05-05T12:38:51.166Z,3.65
2023-05-05T12:42:16.142Z,4.60
2023-05-05T12:45:32.716Z,3.93
2023-05-05T12:48:50.472Z,6.43
2023-05-05T12:52:08.776Z,5.38
2023-05-05T12:55:25.361Z,5.28
2023-05-05T13:02:03.246Z,4.40
2023-05-05T13:05:20.932Z,3.13
2023-05-05T13:08:52.922Z,5.18
2023-05-05T13:12:12.062Z,4.70
2023-05-05T13:15:28.891Z,3.60
2023-05-05T13:18:55.365Z,2.70
2023-05-05T13:22:12.084Z,2.60
2023-05-05T13:25:28.487Z,2.80
2023-05-05T13:28:45.570Z,5.30
2023-05-05T13:32:02.019Z,4.80
2023-05-05T13:35:19.042Z,5.03
2023-05-05T13:38:35.813Z,3.15
2023-05-05T13:41:52.427Z,3.75
2023-05-05T13:45:10.407Z,2.85
2023-05-05T13:48:29.838Z,2.30
2023-05-05T13:51:47.716Z,3.73
2023-05-05T13:55:04.503Z,2.83
2023-05-05T13:58:21.165Z,5.75
2023-05-05T14:01:38.040Z,5.90
2023-05-05T14:04:57.013Z,4.05
2023-05-05T14:08:14.124Z,2.75
2023-05-05T14:11:32.512Z,4.33
2023-05-05T14:14:48.842Z,1.57
2023-05-05T14:18:05.438Z,2.30
2023-05-05T14:21:21.848Z,34.10
2023-05-05T14:24:38.301Z,6.45
2023-05-05T14:27:54.815Z,4.50
2023-05-05T14:31:13.154Z,4.28
2023-05-05T14:34:29.641Z,6.30
2023-05-05T14:37:46.611Z,10.25
2023-05-05T14:41:03.217Z,4.68
2023-05-05T14:44:19.657Z,2.25
2023-05-05T14:47:36.653Z,2.70
2023-05-05T14:50:53.089Z,1.70
2023-05-05T14:54:24.130Z,2.15
2023-05-05T15:00:42.436Z,2.88
2023-05-05T15:03:58.924Z,33.00
2023-05-05T15:07:15.299Z,8.63
2023-05-05T15:10:32.435Z,3.83
2023-05-05T15:17:07.471Z,2.20
2023-05-05T15:20:24.011Z,2.85
2023-05-05T15:23:41.079Z,2.18
2023-05-05T15:26:57.571Z,2.70
2023-05-05T15:33:31.224Z,2.40
2023-05-05T15:36:47.608Z,2.53
2023-05-05T15:40:06.910Z,3.55
2023-05-05T15:43:23.409Z,4.45
2023-05-05T15:50:44.571Z,6.95
2023-05-05T15:54:01.235Z,2.90
2023-05-05T15:57:19.185Z,3.13
2023-05-05T16:00:37.343Z,3.28
2023-05-05T16:03:53.835Z,2.57
2023-05-05T16:07:10.450Z,2.70
2023-05-05T16:10:27.409Z,3.45
2023-05-05T16:19:07.469Z,1.68
2023-05-05T16:22:23.948Z,3.65
2023-05-05T16:25:40.440Z,2.83
2023-05-05T16:28:57.048Z,3.43
2023-05-05T16:32:13.899Z,4.50
2023-05-05T16:35:30.643Z,2.13
2023-05-05T16:38:47.294Z,23.55
2023-05-05T16:42:52.767Z,7.63
2023-05-05T16:46:07.028Z,3.35
2023-05-05T16:49:25.087Z,2.68
2023-05-05T16:52:42.064Z,2.15
2023-05-05T16:56:02.122Z,8.08
2023-05-05T16:59:20.149Z,3.55
2023-05-05T17:02:36.677Z,4.63
2023-05-05T17:05:54.691Z,2.95
2023-05-05T17:09:11.672Z,3.05
2023-05-05T17:12:28.479Z,2.33
2023-05-05T17:15:45.560Z,3.55
2023-05-05T17:19:03.404Z,5.03
2023-05-05T17:22:19.900Z,5.73
2023-05-05T17:25:36.369Z,3.15
2023-05-05T17:28:52.819Z,3.83
2023-05-05T17:35:17.640Z,2.33
2023-05-05T17:38:38.628Z,5.68
2023-05-05T17:41:55.330Z,4.08
2023-05-05T17:45:13.366Z,3.90
2023-05-05T17:48:31.092Z,4.50
2023-05-05T17:51:47.912Z,3.13
2023-05-05T17:55:05.772Z,2.90
2023-05-05T18:01:38.235Z,6.63
2023-05-05T18:04:54.678Z,3.65
2023-05-05T18:08:11.328Z,4.88
2023-05-05T18:11:42.167Z,4.93
2023-05-05T18:14:55.868Z,3.30
2023-05-05T18:18:13.120Z,7.10
2023-05-05T18:21:35.604Z,7.43
2023-05-05T18:25:03.178Z,4.10
2023-05-05T18:28:22.540Z,6.00
2023-05-05T18:31:39.298Z,4.93
2023-05-05T18:34:55.873Z,4.78
2023-05-05T18:38:12.184Z,14.33
2023-05-05T18:41:31.664Z,26.30
2023-05-05T18:48:04.577Z,19.70
2023-05-05T18:51:20.938Z,13.28
2023-05-05T18:54:38.012Z,17.80
2023-05-05T18:57:54.617Z,21.70
2023-05-05T19:04:31.738Z,8.95
2023-05-05T19:07:47.571Z,13.88
2023-05-05T19:11:04.525Z,23.00
2023-05-05T19:17:38.009Z,16.05
2023-05-05T19:21:09.117Z,17.25
2023-05-05T19:24:36.599Z,16.90
2023-05-05T19:27:53.534Z,60.60
2023-05-05T19:31:10.137Z,21.35
2023-05-05T19:34:26.898Z,18.68
2023-05-05T19:37:44.325Z,17.05
2023-05-05T19:41:01.506Z,14.55
2023-05-05T19:50:44.769Z,21.65
2023-05-05T19:54:01.382Z,16.90
2023-05-05T19:57:18.168Z,24.10
2023-05-05T20:00:34.967Z,20.48
2023-05-05T20:03:51.952Z,13.18
2023-05-05T20:07:09.147Z,14.95
2023-05-05T20:10:27.605Z,15.40
2023-05-05T20:13:44.056Z,16.57
2023-05-05T20:17:00.576Z,17.43
2023-05-05T20:20:21.296Z,17.35
2023-05-05T20:23:39.183Z,21.03
2023-05-05T20:26:56.446Z,21.80
2023-05-05T20:30:16.190Z,21.08
2023-05-05T20:33:33.222Z,16.75
2023-05-05T20:36:49.684Z,17.33
2023-05-05T20:40:07.090Z,20.38
2023-05-05T20:43:24.122Z,22.40
2023-05-05T20:49:57.237Z,20.50
2023-05-05T20:53:15.973Z,16.03
2023-05-05T20:56:32.735Z,22.00
2023-05-05T21:03:05.951Z,16.20
2023-05-05T21:06:24.014Z,15.80
2023-05-05T21:09:40.801Z,16.18
2023-05-05T21:12:57.684Z,16.55
2023-05-05T21:19:31.172Z,18.40
2023-05-05T21:22:48.892Z,16.58
2023-05-05T21:26:05.586Z,18.98
2023-05-05T21:34:14.739Z,19.68
2023-05-05T21:37:31.913Z,17.70
2023-05-05T21:40:48.538Z,16.10
2023-05-05T21:44:05.738Z,17.93
2023-05-05T21:50:40.109Z,12.75
2023-05-05T21:53:58.228Z,17.03
2023-05-05T21:57:14.852Z,13.85
2023-05-05T22:03:48.331Z,13.40
2023-05-05T22:07:06.589Z,12.80
2023-05-05T22:10:24.140Z,14.03
2023-05-05T22:13:41.936Z,14.10
2023-05-05T22:17:04.044Z,10.68
2023-05-05T22:20:22.569Z,15.75
2023-05-05T22:23:41.430Z,14.70
2023-05-05T22:26:58.380Z,12.90
2023-05-05T22:30:17.931Z,13.35
2023-05-05T22:33:34.827Z,10.33
2023-05-05T22:36:51.323Z,12.73
2023-05-05T22:40:09.668Z,11.78
2023-05-05T22:43:27.577Z,12.13
2023-05-05T22:46:45.239Z,12.75
2023-05-05T22:50:05.057Z,10.55
2023-05-05T22:53:21.473Z,8.85
2023-05-05T22:56:37.987Z,10.30
2023-05-05T23:03:11.213Z,11.13
2023-05-05T23:06:29.333Z,8.90
2023-05-05T23:09:46.185Z,10.30
2023-05-05T23:13:02.667Z,9.18
2023-05-05T23:19:35.965Z,11.75
2023-05-05T23:22:52.346Z,11.43
2023-05-05T23:26:09.434Z,8.88
2023-05-05T23:29:26.073Z,8.70
2023-05-05T23:32:43.795Z,8.68
2023-05-05T23:36:15.338Z,9.10
2023-05-05T23:39:32.162Z,10.10
2023-05-05T23:42:49.134Z,8.38
2023-05-05T23:46:05.710Z,8.95
2023-05-05T23:49:22.288Z,11.58
2023-05-05T23:52:39.158Z,10.25
2023-05-05T23:55:56.262Z,8.95
2023-05-05T23:59:12.574Z,8.95
